CheckWX is a tool to help pilots better visualize weather data.  It is not intended as a substitute for an official pre-flight weather briefing.

20:03:11 UTC

KHCO METAR
Hallock Municipal Airport
Hallock, Minnesota, USA
Current

8 mins ago

KHCO 261955Z AUTO 01007KT 10SM OVC005 M07/M08 A2997 RMK AO2
Observed
Jan-26 @ 19:55 UTC
Wind
  • 010° at 7 KTS
Visibility
10 SM
Flight Rules
IFR
Cloud Levels
  • Overcast at 500' AGL
Temperature
-7°C / 19°F
Dewpoint
-8°C / 18°F
Humidity
93%
Altimeter
29.97" Hg
Pressure
1014.92 hPa
Previous

28 mins ago

KHCO 261935Z AUTO 01007KT 10SM OVC005 M07/M08 A2997 RMK AO2
Observed
Jan-26 @ 19:35 UTC
Wind
  • 010° at 7 KTS
Visibility
10 SM
Flight Rules
IFR
Cloud Levels
  • Overcast at 500' AGL
Temperature
-7°C / 19°F
Dewpoint
-8°C / 18°F
Humidity
93%
Altimeter
29.97" Hg
Pressure
1014.92 hPa
Previous

47 mins ago

KHCO 261916Z AUTO 01007KT 7SM OVC005 M07/M08 A2996 RMK AO2
Observed
Jan-26 @ 19:16 UTC
Wind
  • 010° at 7 KTS
Visibility
7 SM
Flight Rules
IFR
Cloud Levels
  • Overcast at 500' AGL
Temperature
-7°C / 19°F
Dewpoint
-8°C / 18°F
Humidity
93%
Altimeter
29.96" Hg
Pressure
1014.52 hPa